Terminal Aerodrome Forecast
Issued by NWS Billings, MT

Home | Current Version | Previous Version | Text Only | Print | Product List | Glossary On
Versions: 1 2 3 4 5 6 7 8 9 10 11 12 13 14 15 16
000
FTUS45 KBYZ 211131
TAFSHR
TAF
KSHR 211131Z 2112/2212 31008KT P6SM VCSH BKN080
     FM220000 33012KT P6SM -RA SCT040 OVC060
     FM220400 30008KT P6SM -RA SCT050 OVC070=

USA.gov is the U.S. government's official web portal to all federal, state and local government web resources and services.